Latest Weather Observations for Badgerys Creek

IDN60901

Issued at 5:51 pm EST Friday 29 July 2016 (issued every 10 minutes, with the page automatically refreshed every 10 minutes)

About weather observations | Map of Sydney area stations | Latest observations for Sydney area | Other Formats
Station Details ID: 067108 Name: BADGERYS CREEK AWS Lat: -33.90 Lon: 150.73 Height: 81.2 m
Data from the previous 72 hours. | See also: Recent months at Badgerys Creek
Date/Time
EST
Temp
°C
App
Temp
°C
Dew
Point
°C
Rel
Hum
%
Delta-T
°C
Wind Press
QNH
hPa
Press
MSL
hPa
Rain since
9am
mm
Dir  Spd
km/h
Gust
km/h
Spd
kts
Gust
kts
29/05:30pm 12.6 8.8 4.1 56 3.9 SW 13 24 7 13 1018.7 1018.8 0.0
29/05:00pm 13.9 9.1 4.8 54 4.2 WSW 19 24 10 13 1018.5 1018.6 0.0
29/04:30pm 15.5 10.7 4.8 49 5.0 SW 19 28 10 15 1018.3 1018.3 0.0
29/04:00pm 16.5 11.6 5.2 47 5.4 SW 20 28 11 15 1018.2 1018.2 0.0
29/03:30pm 17.0 12.0 4.7 44 5.9 SSW 20 28 11 15 1018.1 1018.1 0.0
29/03:00pm 18.2 13.2 4.4 40 6.6 WSW 20 32 11 17 1018.1 1018.1 0.0
29/02:30pm 18.0 13.6 4.9 42 6.3 WSW 17 24 9 13 1017.9 1017.9 0.0
29/02:00pm 18.1 14.6 5.3 43 6.2 SW 13 22 7 12 1018.2 1018.2 0.0
29/01:30pm 17.2 13.5 4.5 43 6.0 SW 13 20 7 11 1018.5 1018.6 0.0
29/01:00pm 16.7 12.2 4.4 44 5.8 WSW 17 20 9 11 1019.1 1019.2 0.0
29/12:30pm 16.1 11.8 3.2 42 5.9 WSW 15 22 8 12 1019.7 1019.8 0.0
29/12:00pm 15.4 10.7 2.9 43 5.6 WSW 17 24 9 13 1020.5 1020.6 0.0
29/11:30am 14.4 11.7 3.5 48 5.0 WSW 7 17 4 9 1021.2 1021.3 0.0
29/11:00am 13.0 10.3 3.9 54 4.1 WSW 7 13 4 7 1021.5 1021.6 0.0
29/10:30am 12.2 9.8 5.1 62 3.3 NNW 7 11 4 6 1022.1 1022.2 0.0
29/10:00am 11.0 8.8 6.2 72 2.2 N 7 11 4 6 1022.5 1022.6 0.0
29/09:30am 9.0 6.7 5.6 79 1.5 NNE 7 9 4 5 1022.7 1022.8 0.0
29/09:00am 9.1 8.2 6.0 81 1.4 CALM 0 0 0 0 1023.1 1023.2 0.0
29/08:30am 6.1 4.8 6.0 99 0.0 WNW 2 4 1 2 1023.2 1023.3 0.0
29/08:00am 3.3 1.1 3.2 99 0.0 WNW 4 6 2 3 1023.1 1023.2 0.0
29/07:30am 1.5 -1.0 1.4 99 0.0 WNW 4 6 2 3 1023.0 1023.1 0.0
29/07:00am 2.4 -0.4 2.3 99 0.0 WNW 6 7 3 4 1023.0 1023.1 0.0
29/06:30am 2.3 -0.5 2.2 99 0.0 WNW 6 7 3 4 1022.8 1022.9 0.0
29/06:00am 2.1 -0.9 2.0 99 0.0 WNW 7 9 4 5 1022.6 1022.7 0.0
29/05:30am 2.5 -0.2 2.4 99 0.0 WNW 6 7 3 4 1022.2 1022.3 0.0
29/05:00am 1.5 -1.4 1.4 99 0.0 WNW 6 7 3 4 1022.2 1022.3 0.0
29/04:30am 2.0 -1.0 1.9 99 0.0 WNW 7 9 4 5 1022.0 1022.1 0.0
29/04:00am 2.9 0.2 2.8 99 0.0 WNW 6 9 3 5 1022.1 1022.2 0.0
29/03:30am 2.6 0.2 2.2 97 0.2 WNW 4 7 2 4 1022.1 1022.2 0.0
29/03:00am 3.9 1.1 3.2 95 0.3 NNW 7 9 4 5 1022.4 1022.5 0.0
29/02:30am 3.7 1.4 2.8 94 0.4 N 4 6 2 3 1022.5 1022.6 0.0
29/02:00am 5.6 3.3 2.8 82 1.1 N 4 6 2 3 1022.7 1022.8 0.0
29/01:30am 4.6 1.8 2.1 84 1.0 N 6 6 3 3 1022.6 1022.7 0.0
29/01:00am 7.0 5.6 3.6 79 1.4 CALM 0 0 0 0 1022.5 1022.6 0.0
29/12:30am 6.1 3.3 3.1 81 1.3 WSW 7 7 4 4 1022.6 1022.7 0.0
29/12:00am 6.7 4.6 3.9 82 1.2 WSW 4 6 2 3 1022.7 1022.8 0.0
 
Date/Time
EST
Temp
°C
App
Temp
°C
Dew
Point
°C
Rel
Hum
%
Delta-T
°C
Wind Press
QNH
hPa
Press
MSL
hPa
Rain since
9am
mm
Dir  Spd
km/h
Gust
km/h
Spd
kts
Gust
kts
28/11:30pm 4.5 2.1 2.2 85 0.9 WSW 4 6 2 3 1022.8 1022.9 0.0
28/11:00pm 6.8 4.6 3.1 77 1.5 WSW 4 6 2 3 1022.9 1023.0 0.0
28/10:30pm 6.5 4.2 2.6 76 1.6 WSW 4 7 2 4 1023.0 1023.1 0.0
28/10:00pm 5.8 3.9 2.8 81 1.2 WSW 2 4 1 2 1022.9 1023.0 0.0
28/09:30pm 7.5 5.7 3.7 77 1.6 WSW 2 2 1 1 1022.9 1023.0 0.0
28/09:00pm 7.2 4.5 2.9 74 1.8 SW 6 6 3 3 1023.1 1023.2 0.0
28/08:30pm 9.0 6.8 3.4 68 2.4 SW 4 6 2 3 1022.9 1023.0 0.0
28/08:00pm 8.5 5.3 2.9 68 2.4 WSW 9 11 5 6 1022.8 1022.9 0.0
28/07:30pm 9.0 5.5 3.4 68 2.4 WSW 11 13 6 7 1022.6 1022.7 0.0
28/07:00pm 9.2 5.7 3.4 67 2.5 SW 11 15 6 8 1022.4 1022.5 0.0
28/06:30pm 10.6 6.2 4.5 66 2.7 SW 17 20 9 11 1022.1 1022.2 0.0
28/06:00pm 11.4 7.0 4.6 63 3.1 WSW 17 20 9 11 1021.7 1021.8 0.0
28/05:30pm 12.5 8.5 4.7 59 3.6 SW 15 20 8 11 1021.5 1021.6 0.0
28/05:00pm 14.6 10.3 5.1 53 4.5 SW 17 24 9 13 1021.1 1021.2 0.0
28/04:30pm 16.4 12.6 5.7 49 5.2 SW 15 19 8 10 1020.9 1021.0 0.0
28/04:00pm 17.5 13.8 6.1 47 5.6 SW 15 20 8 11 1020.7 1020.8 0.0
28/03:30pm 19.1 17.3 7.2 46 6.0 NNW 6 11 3 6 1020.5 1020.6 0.0
28/03:00pm 18.9 17.0 6.7 45 6.1 NNW 6 7 3 4 1020.5 1020.6 0.0
28/02:30pm 18.5 15.9 6.0 44 6.2 NNW 9 13 5 7 1020.5 1020.6 0.0
28/02:00pm 18.4 16.3 5.6 43 6.2 NNW 6 9 3 5 1020.9 1021.0 0.0
28/01:30pm 17.8 15.5 5.7 45 5.9 WNW 7 15 4 8 1021.2 1021.3 0.0
28/01:00pm 18.4 16.4 6.3 45 6.0 N 6 11 3 6 1021.6 1021.7 0.0
28/12:30pm 16.9 14.6 5.5 47 5.5 W 7 11 4 6 1022.1 1022.2 0.0
28/12:00pm 16.7 14.4 5.6 48 5.3 N 7 13 4 7 1022.4 1022.5 0.0
28/11:30am 15.7 13.0 5.6 51 4.9 N 9 13 5 7 1023.2 1023.3 0.0
28/11:00am 15.4 12.8 5.9 53 4.6 WNW 9 17 5 9 1023.7 1023.8 0.0
28/10:30am 14.5 11.7 5.3 54 4.4 W 9 17 5 9 1024.1 1024.2 0.0
28/10:00am 13.3 10.2 5.5 59 3.7 WSW 11 17 6 9 1024.4 1024.5 0.0
28/09:30am 12.0 9.2 5.0 62 3.2 WSW 9 15 5 8 1024.4 1024.5 0.0
28/09:00am 11.2 8.1 5.5 68 2.6 SW 11 15 6 8 1024.1 1024.2 0.0
28/08:30am 9.8 7.2 6.0 77 1.8 SW 9 13 5 7 1024.3 1024.4 0.0
28/08:00am 6.4 4.3 5.7 95 0.3 WSW 6 7 3 4 1024.0 1024.1 0.0
28/07:30am 3.5 0.3 3.2 98 0.1 WSW 9 9 5 5 1023.8 1023.9 0.0
28/07:00am 3.0 0.3 2.4 96 0.2 W 6 7 3 4 1023.4 1023.5 0.0
28/06:30am 4.1 1.6 4.0 99 0.0 WSW 6 9 3 5 1022.7 1022.8 0.0
28/06:00am 2.4 -0.6 2.3 99 0.0 WSW 7 9 4 5 1022.4 1022.5 0.0
28/05:30am 2.8 0.0 2.2 96 0.2 E 6 9 3 5 1022.3 1022.4 0.0
28/05:00am 4.1 1.4 2.9 92 0.5 NE 6 7 3 4 1021.8 1021.9 0.0
28/04:30am 4.3 2.8 3.0 91 0.5 CALM 0 0 0 0 1021.2 1021.3 0.0
28/04:00am 5.1 2.5 3.4 89 0.7 NE 6 7 3 4 1021.0 1021.1 0.0
28/03:30am 4.2 1.3 2.6 89 0.6 N 7 9 4 5 1021.0 1021.1 0.0
28/03:00am 4.8 1.9 2.5 85 0.9 NNE 7 9 4 5 1021.0 1021.1 0.0
28/02:30am 6.7 4.0 3.9 82 1.2 N 7 9 4 5 1021.1 1021.2 0.0
28/02:00am 5.5 2.7 3.3 86 0.9 NNE 7 13 4 7 1021.4 1021.5 0.0
28/01:30am 6.1 4.3 3.6 84 1.1 WSW 2 4 1 2 1021.5 1021.6 0.0
28/01:00am 6.8 4.1 3.9 82 1.2 SW 7 9 4 5 1021.3 1021.4 0.0
28/12:30am 7.6 4.8 3.3 74 1.8 WSW 7 9 4 5 1021.3 1021.4 0.0
28/12:00am 7.8 6.5 4.0 77 1.6 CALM 0 6 0 3 1021.1 1021.2 0.0
 
Date/Time
EST
Temp
°C
App
Temp
°C
Dew
Point
°C
Rel
Hum
%
Delta-T
°C
Wind Press
QNH
hPa
Press
MSL
hPa
Rain since
9am
mm
Dir  Spd
km/h
Gust
km/h
Spd
kts
Gust
kts
27/11:30pm 8.9 7.7 4.7 75 1.9 CALM 0 2 0 1 1020.7 1020.8 0.0
27/11:00pm 7.4 5.6 3.5 76 1.7 W 2 6 1 3 1020.0 1020.1 0.0
27/10:30pm 7.8 5.3 3.7 75 1.8 N 6 7 3 4 1020.2 1020.3 0.0
27/10:00pm 8.9 7.0 4.7 75 1.9 N 4 7 2 4 1020.2 1020.3 0.0
27/09:30pm 9.4 7.3 4.0 69 2.4 W 4 11 2 6 1020.1 1020.2 0.0
27/09:00pm 9.4 7.1 4.8 73 2.1 W 6 7 3 4 1019.7 1019.8 0.0
27/08:30pm 8.3 6.1 3.6 72 2.0 W 4 7 2 4 1019.3 1019.4 0.0
27/08:00pm 9.7 7.3 4.3 69 2.4 W 6 7 3 4 1018.9 1019.0 0.0
27/07:30pm 9.6 7.0 4.0 68 2.5 W 7 9 4 5 1018.5 1018.6 0.0
27/07:00pm 9.8 6.8 4.2 68 2.5 WSW 9 11 5 6 1018.1 1018.1 0.0
27/06:30pm 10.0 6.9 3.7 65 2.8 WSW 9 17 5 9 1017.3 1017.4 0.0
27/06:00pm 11.3 8.9 4.5 63 3.1 WSW 6 9 3 5 1016.7 1016.8 0.0
27/05:30pm 12.3 9.7 4.0 57 3.7 W 7 13 4 7 1016.0 1016.1 0.0
27/05:00pm 13.8 10.4 4.1 52 4.4 WSW 11 17 6 9 1015.7 1015.8 0.0
27/04:30pm 15.6 9.3 4.0 46 5.4 WSW 26 37 14 20 1015.2 1015.3 0.0
27/04:00pm 16.7 11.9 4.7 45 5.7 W 19 28 10 15 1014.6 1014.7 0.0
27/03:30pm 16.8 11.7 4.2 43 5.9 WSW 20 32 11 17 1014.1 1014.2 0.0
27/03:00pm 17.1 12.1 4.4 43 6.0 WSW 20 32 11 17 1013.8 1013.9 0.0
27/02:30pm 17.0 11.9 4.3 43 6.0 W 20 30 11 16 1013.5 1013.6 0.0
27/02:00pm 17.4 11.2 4.4 42 6.2 WSW 26 41 14 22 1013.0 1013.1 0.0
27/01:30pm 17.2 11.1 4.9 44 5.9 WSW 26 37 14 20 1012.8 1012.9 0.0
27/01:00pm 16.9 11.5 4.6 44 5.8 W 22 33 12 18 1012.8 1012.9 0.0
27/12:30pm 17.0 10.0 4.3 43 6.0 WNW 30 44 16 24 1012.8 1012.9 0.0
27/12:00pm 16.9 9.4 4.3 43 5.9 WNW 33 50 18 27 1012.6 1012.7 0.0
27/11:44am 17.1 10.3 5.1 45 5.8 WNW 30 50 16 27 1012.5 1012.6 0.0
27/11:30am 17.0 9.9 5.3 46 5.6 WNW 32 43 17 23 1012.8 1012.9 0.0
27/11:00am 16.4 10.4 5.4 48 5.3 WNW 26 35 14 19 1012.5 1012.6 0.0
27/10:30am 15.9 9.7 6.1 52 4.8 W 28 37 15 20 1012.6 1012.7 0.0
27/10:00am 15.7 9.1 6.2 53 4.6 WNW 30 43 16 23 1012.4 1012.5 0.0
27/09:30am 15.8 8.9 6.5 54 4.6 NW 32 46 17 25 1012.2 1012.3 0.0
27/09:20am 15.4 10.4 6.4 55 4.4 NNW 22 43 12 23 1012.1 1012.2 0.0
27/09:00am 15.1 11.4 6.4 56 4.2 N 15 20 8 11 1012.2 1012.3 0.0
27/08:30am 13.3 10.3 6.2 62 3.4 N 11 19 6 10 1012.3 1012.4 0.0
27/08:00am 11.9 8.9 5.8 66 2.9 N 11 13 6 7 1012.2 1012.3 0.0
27/07:30am 10.1 7.7 5.1 71 2.3 NE 7 9 4 5 1012.1 1012.2 0.0
27/07:00am 9.2 6.7 4.6 73 2.1 NE 7 9 4 5 1012.1 1012.2 0.0
27/06:30am 9.6 7.0 4.4 70 2.3 NNE 7 13 4 7 1011.9 1012.0 0.0
27/06:00am 9.3 6.0 4.5 72 2.1 N 11 15 6 8 1011.8 1011.9 0.0
27/05:30am 8.6 5.2 3.8 72 2.1 N 11 17 6 9 1011.7 1011.8 0.0
27/05:00am 9.4 6.0 4.2 70 2.3 N 11 19 6 10 1011.9 1012.0 0.0
27/04:30am 9.3 5.6 4.3 71 2.2 N 13 20 7 11 1012.2 1012.3 0.0
27/04:00am 9.1 6.8 4.7 74 2.0 SSW 6 9 3 5 1012.2 1012.3 0.0
27/03:30am 7.4 5.7 3.8 78 1.5 E 2 4 1 2 1012.2 1012.3 0.0
27/03:00am 7.5 5.3 3.2 74 1.8 N 4 9 2 5 1012.3 1012.4 0.0
27/02:30am 9.8 7.3 4.0 67 2.6 N 6 11 3 6 1012.4 1012.5 0.0
27/02:00am 11.2 6.7 4.2 62 3.1 WNW 17 24 9 13 1013.1 1013.2 0.0
27/01:30am 9.3 6.0 4.5 72 2.1 NW 11 20 6 11 1013.7 1013.8 0.0
27/01:00am 11.3 9.0 4.7 64 3.0 NNW 6 7 3 4 1013.5 1013.6 0.0
27/12:30am 11.6 9.1 4.8 63 3.1 N 7 9 4 5 1013.6 1013.7 0.0
27/12:00am 11.1 7.9 5.2 67 2.7 NNW 11 13 6 7 1013.9 1014.0 0.0
 
Date/Time
EST
Temp
°C
App
Temp
°C
Dew
Point
°C
Rel
Hum
%
Delta-T
°C
Wind Press
QNH
hPa
Press
MSL
hPa
Rain since
9am
mm
Dir  Spd
km/h
Gust
km/h
Spd
kts
Gust
kts
26/11:30pm 11.3 7.7 5.2 66 2.8 NNW 13 17 7 9 1013.9 1014.0 0.0
26/11:00pm 9.8 6.6 5.2 73 2.1 N 11 13 6 7 1014.2 1014.3 0.0
26/10:30pm 8.5 6.3 3.4 70 2.2 ENE 4 7 2 4 1014.3 1014.4 0.0
26/10:00pm 8.1 5.8 3.0 70 2.2 ENE 4 6 2 3 1014.4 1014.5 0.0
26/09:30pm 8.7 6.5 3.5 70 2.2 ENE 4 6 2 3 1014.3 1014.4 0.0
26/09:00pm 8.9 7.5 3.5 69 2.3 CALM 0 2 0 1 1014.4 1014.5 0.0
26/08:30pm 10.6 8.4 3.6 62 3.1 ENE 4 4 2 2 1014.5 1014.6 0.0
26/08:00pm 10.8 8.6 3.1 59 3.4 ENE 4 6 2 3 1014.6 1014.7 0.0
26/07:30pm 12.6 10.4 3.3 53 4.1 ENE 4 7 2 4 1014.5 1014.6 0.0
26/07:00pm 10.9 8.7 3.5 60 3.3 ESE 4 9 2 5 1014.4 1014.5 0.0
26/06:30pm 12.0 10.5 3.0 54 4.0 CALM 0 0 0 0 1014.1 1014.2 0.0
26/06:00pm 12.7 10.1 3.1 52 4.3 W 6 9 3 5 1013.9 1014.0 0.0

Latest Capital City Observations: Canberra | Sydney | Melbourne | Brisbane | Adelaide | Perth | Hobart | Darwin

Other Formats:

Comma delimited format used in spreadsheet applications
http://www.bom.gov.au/fwo/IDN60901/IDN60901.94752.axf

JavaScript Object Notation format (JSON) in row-major order
http://www.bom.gov.au/fwo/IDN60901/IDN60901.94752.json